Time;durP1;ratioP1;P1;durP2;ratioP2;P2;SDS_P1;SDS_P2;PMS_P1;PMS_P2;Temp;Humidity;BMP_temperature;BMP_pressure;BME280_temperature;BME280_humidity;BME280_pressure;Samples;Min_cycle;Max_cycle;Signal;HPM_P1;HPM_P2
2021/11/28 00:01:57;;;;;;;4.93;4.47;;;1.60;99.90;;;;;;4977342;28;20171;-68
2021/11/28 00:04:23;;;;;;;6.03;5.37;;;1.50;99.90;;;;;;4977393;28;20298;-68
2021/11/28 00:07:03;;;;;;;3.87;3.60;;;1.50;99.90;;;;;;4977205;28;20223;-69
2021/11/28 00:09:57;;;;;;;3.75;3.33;;;1.50;99.90;;;;;;4977670;28;20415;-68
2021/11/28 00:14:54;;;;;;;4.73;4.10;;;1.50;99.90;;;;;;4977563;28;20512;-68
2021/11/28 00:17:20;;;;;;;4.05;3.78;;;1.50;99.90;;;;;;4977184;28;20400;-69
2021/11/28 00:19:46;;;;;;;5.43;4.78;;;1.50;99.90;;;;;;4976113;28;20244;-67
2021/11/28 00:22:11;;;;;;;4.30;4.00;;;1.50;99.90;;;;;;4977386;28;20181;-67
2021/11/28 00:24:39;;;;;;;5.17;4.70;;;1.50;99.90;;;;;;4975621;28;20259;-66
2021/11/28 00:27:05;;;;;;;4.90;3.78;;;1.40;99.90;;;;;;4976774;28;20442;-68
2021/11/28 00:29:33;;;;;;;5.32;4.80;;;1.40;99.90;;;;;;4977240;28;20255;-67
2021/11/28 00:31:59;;;;;;;3.28;3.05;;;1.40;99.90;;;;;;4975811;28;20183;-68
2021/11/28 00:34:25;;;;;;;4.45;4.05;;;1.40;99.90;;;;;;4977086;28;20588;-67
2021/11/28 00:36:50;;;;;;;6.00;5.20;;;1.40;99.90;;;;;;4976633;28;20168;-67
2021/11/28 00:39:16;;;;;;;2.33;2.13;;;1.40;99.90;;;;;;4975934;28;20180;-69
2021/11/28 00:41:42;;;;;;;3.83;3.47;;;1.50;99.90;;;;;;4976979;28;20682;-68
2021/11/28 00:44:07;;;;;;;4.67;4.33;;;1.50;99.90;;;;;;4977080;28;20192;-68
2021/11/28 00:46:33;;;;;;;5.60;4.90;;;1.50;99.90;;;;;;4976691;28;20250;-67
2021/11/28 00:49:03;;;;;;;5.93;4.10;;;1.50;99.90;;;;;;4976789;28;20180;-68
2021/11/28 00:51:36;;;;;;;4.07;3.80;;;1.50;99.90;;;;;;4975713;28;20422;-67
2021/11/28 00:54:02;;;;;;;3.15;2.72;;;1.50;99.90;;;;;;4976816;28;20184;-67
2021/11/28 00:56:28;;;;;;;4.97;3.38;;;1.50;99.90;;;;;;4976502;28;20164;-69
2021/11/28 00:58:54;;;;;;;4.90;4.00;;;1.50;99.90;;;;;;4975961;28;20530;-68
2021/11/28 01:01:20;;;;;;;3.70;3.50;;;1.50;99.90;;;;;;4993542;28;20179;-68
2021/11/28 01:03:46;;;;;;;5.90;5.32;;;1.50;99.90;;;;;;4995410;28;20262;-67
2021/11/28 01:06:12;;;;;;;4.38;3.35;;;1.50;99.90;;;;;;4995868;28;20210;-67
2021/11/28 01:08:38;;;;;;;3.75;3.50;;;1.50;99.90;;;;;;4995543;28;20681;-68
2021/11/28 01:11:04;;;;;;;4.75;4.25;;;1.60;99.90;;;;;;4995817;28;20171;-67
2021/11/28 01:13:30;;;;;;;6.80;4.30;;;1.60;99.90;;;;;;4991665;28;20242;-67
2021/11/28 01:15:56;;;;;;;3.85;3.53;;;1.60;99.90;;;;;;4976099;28;20418;-67
2021/11/28 01:18:23;;;;;;;4.63;2.70;;;1.60;99.90;;;;;;4975996;28;20259;-67
2021/11/28 01:20:48;;;;;;;4.40;3.95;;;1.60;99.90;;;;;;4975939;28;20172;-67
2021/11/28 01:23:14;;;;;;;3.23;2.97;;;1.70;99.90;;;;;;4991040;28;20255;-67
2021/11/28 01:25:40;;;;;;;4.00;3.60;;;1.70;99.90;;;;;;4975999;28;20702;-67
2021/11/28 01:28:05;;;;;;;3.20;2.90;;;1.80;99.90;;;;;;4975638;28;20694;-69
2021/11/28 01:30:31;;;;;;;3.40;3.10;;;1.90;99.90;;;;;;4976183;28;20632;-68
2021/11/28 01:32:57;;;;;;;3.10;2.83;;;1.90;99.90;;;;;;4975925;28;20199;-68
2021/11/28 01:35:23;;;;;;;6.50;4.27;;;1.90;99.90;;;;;;4976061;28;20181;-67
2021/11/28 01:37:48;;;;;;;3.43;3.13;;;1.90;99.90;;;;;;4975560;28;20651;-69
2021/11/28 01:40:18;;;;;;;4.67;3.43;;;1.90;99.90;;;;;;4991248;28;20415;-67
2021/11/28 01:42:52;;;;;;;3.95;3.72;;;1.90;99.90;;;;;;4976027;28;20541;-68
2021/11/28 01:45:25;;;;;;;2.15;2.05;;;1.90;99.90;;;;;;4992802;28;20207;-68
2021/11/28 01:47:53;;;;;;;3.83;3.53;;;1.90;99.90;;;;;;4994700;28;20250;-69
2021/11/28 01:50:21;;;;;;;6.05;3.83;;;1.90;99.90;;;;;;4993561;28;20650;-68
2021/11/28 01:52:47;;;;;;;3.42;3.20;;;1.90;99.90;;;;;;4993598;28;20281;-68
2021/11/28 01:55:19;;;;;;;4.05;3.75;;;2.00;99.90;;;;;;4995012;28;20179;-68
2021/11/28 01:57:44;;;;;;;3.83;3.42;;;2.00;99.90;;;;;;4994648;28;20254;-68
2021/11/28 02:00:17;;;;;;;4.37;4.00;;;2.00;99.90;;;;;;4994749;28;20263;-68
2021/11/28 02:02:44;;;;;;;7.68;4.30;;;1.90;99.90;;;;;;4994590;28;20195;-67
2021/11/28 02:05:10;;;;;;;3.47;3.17;;;1.90;99.90;;;;;;4994868;28;20744;-67
2021/11/28 02:07:36;;;;;;;5.67;4.20;;;2.00;99.90;;;;;;4993236;28;20267;-66
2021/11/28 02:10:03;;;;;;;8.17;4.63;;;2.00;99.90;;;;;;4993426;28;20419;-69
2021/11/28 02:12:30;;;;;;;5.25;4.75;;;2.00;99.90;;;;;;4994507;28;20175;-69
2021/11/28 02:14:59;;;;;;;5.20;4.80;;;2.10;99.90;;;;;;4976108;28;20642;-68
2021/11/28 02:17:25;;;;;;;7.32;5.97;;;2.00;99.90;;;;;;4974743;28;20180;-68
2021/11/28 02:19:51;;;;;;;3.05;2.85;;;2.10;99.90;;;;;;4975194;28;20172;-67
2021/11/28 02:22:17;;;;;;;3.35;3.13;;;2.10;99.90;;;;;;4975081;28;20256;-68
2021/11/28 02:24:44;;;;;;;3.67;3.30;;;2.10;99.90;;;;;;4982490;28;20679;-67
2021/11/28 02:27:09;;;;;;;7.03;4.97;;;2.10;99.90;;;;;;4992422;28;20210;-68
2021/11/28 02:29:42;;;;;;;5.00;4.57;;;2.10;99.90;;;;;;4994224;28;20176;-68
2021/11/28 02:32:09;;;;;;;4.07;3.53;;;2.10;99.90;;;;;;4994175;28;20175;-66
2021/11/28 02:34:35;;;;;;;3.30;3.00;;;2.10;99.90;;;;;;4993939;28;20210;-67
2021/11/28 02:37:02;;;;;;;3.92;3.63;;;2.10;99.90;;;;;;4993829;28;20163;-68
2021/11/28 02:39:28;;;;;;;4.35;4.00;;;2.10;99.90;;;;;;4993715;28;20646;-68
2021/11/28 02:41:54;;;;;;;3.83;3.33;;;2.20;99.90;;;;;;4994434;28;20254;-67
2021/11/28 02:44:20;;;;;;;4.78;3.80;;;2.10;99.90;;;;;;4993837;28;20441;-66
2021/11/28 02:46:46;;;;;;;7.30;4.80;;;2.20;99.90;;;;;;4993625;28;20171;-67
2021/11/28 02:49:13;;;;;;;4.27;3.17;;;2.10;99.90;;;;;;4994039;28;20413;-67
2021/11/28 02:51:39;;;;;;;6.85;3.83;;;2.20;99.90;;;;;;4994162;28;20159;-69
2021/11/28 02:54:07;;;;;;;5.78;3.60;;;2.10;99.90;;;;;;4987277;28;20199;-67
2021/11/28 02:56:34;;;;;;;4.72;3.72;;;2.10;99.90;;;;;;4973124;28;20246;-68
2021/11/28 02:59:00;;;;;;;5.20;4.80;;;2.10;99.90;;;;;;4974410;28;20271;-68
2021/11/28 03:01:26;;;;;;;6.25;4.45;;;2.10;99.90;;;;;;4974645;28;20255;-67
2021/11/28 03:03:52;;;;;;;4.47;4.27;;;2.20;99.90;;;;;;4973096;28;20302;-68
2021/11/28 03:06:19;;;;;;;5.93;5.15;;;2.20;99.90;;;;;;4974090;28;20230;-68
2021/11/28 03:08:45;;;;;;;4.85;4.45;;;2.20;99.90;;;;;;4974517;28;20227;-68
2021/11/28 03:11:14;;;;;;;3.65;3.40;;;2.20;99.90;;;;;;4974581;28;20174;-68
2021/11/28 03:13:45;;;;;;;5.60;3.35;;;2.20;99.90;;;;;;4974206;28;20675;-67
2021/11/28 03:16:13;;;;;;;4.75;4.43;;;2.10;99.90;;;;;;4989255;28;20188;-65
2021/11/28 03:18:39;;;;;;;3.20;2.90;;;2.10;99.90;;;;;;4972975;28;20223;-67
2021/11/28 03:21:11;;;;;;;3.90;3.53;;;2.10;99.90;;;;;;4974526;28;20179;-67
2021/11/28 03:23:37;;;;;;;1.83;1.75;;;2.00;99.90;;;;;;4979830;28;20202;-67
2021/11/28 03:26:10;;;;;;;3.28;3.08;;;2.00;99.90;;;;;;4993557;28;20199;-69
2021/11/28 03:28:38;;;;;;;4.88;3.80;;;2.00;99.90;;;;;;4993516;28;20250;-68
2021/11/28 03:31:04;;;;;;;6.45;4.00;;;1.90;99.90;;;;;;4993886;28;20588;-67
2021/11/28 03:33:31;;;;;;;4.50;2.78;;;1.90;99.90;;;;;;4993703;28;20199;-68
2021/11/28 03:35:57;;;;;;;3.70;3.40;;;1.90;99.90;;;;;;4995846;28;20597;-67
2021/11/28 03:38:23;;;;;;;2.58;2.38;;;1.90;99.90;;;;;;4995693;28;20256;-67
2021/11/28 03:40:49;;;;;;;4.60;3.22;;;1.90;99.90;;;;;;4997112;28;20258;-68
2021/11/28 03:43:15;;;;;;;5.23;4.63;;;1.90;99.90;;;;;;4997467;28;20262;-68
2021/11/28 03:45:40;;;;;;;4.07;3.78;;;1.90;99.90;;;;;;4996324;28;20630;-68
2021/11/28 03:48:07;;;;;;;6.97;4.60;;;1.90;99.90;;;;;;4997408;28;20218;-65
2021/11/28 03:50:33;;;;;;;5.10;4.60;;;1.90;99.90;;;;;;4997923;28;20573;-68
2021/11/28 03:52:59;;;;;;;4.75;4.05;;;1.80;99.90;;;;;;4997826;28;20194;-67
2021/11/28 03:55:25;;;;;;;4.77;4.43;;;1.80;99.90;;;;;;5002813;28;20266;-68
2021/11/28 03:57:51;;;;;;;6.95;3.50;;;1.80;99.90;;;;;;5001732;28;20179;-69
2021/11/28 04:00:17;;;;;;;6.55;4.40;;;1.80;99.90;;;;;;5002484;28;20255;-69
2021/11/28 04:02:43;;;;;;;5.83;4.07;;;1.80;99.90;;;;;;5003290;28;20215;-67
2021/11/28 04:05:10;;;;;;;3.17;2.70;;;1.80;99.90;;;;;;5002019;28;20450;-67
2021/11/28 04:07:36;;;;;;;3.20;3.00;;;1.70;99.90;;;;;;5001565;28;20322;-66
2021/11/28 04:10:04;;;;;;;3.22;2.97;;;1.70;99.90;;;;;;5002072;28;20258;-67
2021/11/28 04:12:30;;;;;;;4.18;3.75;;;1.70;99.90;;;;;;4997850;28;20164;-67
2021/11/28 04:14:57;;;;;;;3.50;2.63;;;1.80;99.90;;;;;;4997150;28;20190;-67
2021/11/28 04:17:24;;;;;;;5.90;3.15;;;1.80;99.90;;;;;;4996407;28;20175;-68
2021/11/28 04:19:55;;;;;;;5.00;3.03;;;1.80;99.90;;;;;;4998189;28;20171;-68
2021/11/28 04:22:21;;;;;;;3.22;2.92;;;1.80;99.90;;;;;;4992236;28;20191;-68
2021/11/28 04:24:48;;;;;;;6.53;2.90;;;1.80;99.90;;;;;;4977254;28;20214;-67
2021/11/28 04:27:13;;;;;;;3.25;3.00;;;1.80;99.90;;;;;;4976976;28;20407;-69
2021/11/28 04:29:39;;;;;;;2.50;2.30;;;1.90;99.90;;;;;;4977186;28;20566;-68
2021/11/28 04:32:05;;;;;;;3.90;3.60;;;1.90;99.90;;;;;;4977053;28;20168;-68
2021/11/28 04:34:31;;;;;;;5.00;3.47;;;2.00;99.90;;;;;;4977049;28;20200;-68
2021/11/28 04:36:56;;;;;;;2.23;2.00;;;2.10;99.90;;;;;;4976953;28;20782;-67
2021/11/28 04:39:22;;;;;;;2.63;2.53;;;2.10;99.90;;;;;;4976980;28;20168;-69
2021/11/28 04:41:48;;;;;;;2.97;2.73;;;2.10;99.90;;;;;;4977105;28;20183;-67
2021/11/28 04:44:13;;;;;;;2.33;2.23;;;2.10;99.90;;;;;;4976889;28;20554;-66
2021/11/28 04:46:40;;;;;;;3.40;3.10;;;2.10;99.90;;;;;;4975583;28;20555;-66
2021/11/28 04:49:06;;;;;;;4.05;3.70;;;2.20;99.90;;;;;;4979873;28;20557;-67
2021/11/28 04:51:32;;;;;;;3.20;2.95;;;2.20;99.90;;;;;;4996041;28;20172;-69
2021/11/28 04:53:58;;;;;;;4.57;3.80;;;2.20;99.90;;;;;;4995943;28;20192;-67
2021/11/28 04:56:25;;;;;;;4.75;3.00;;;2.20;99.90;;;;;;4994389;28;20182;-67
2021/11/28 04:58:51;;;;;;;4.55;3.05;;;2.20;99.90;;;;;;4995996;28;20181;-68
2021/11/28 05:01:17;;;;;;;4.07;2.40;;;2.20;99.90;;;;;;4995926;28;20701;-68
2021/11/28 05:03:42;;;;;;;2.50;2.30;;;2.20;99.90;;;;;;4995343;28;20748;-67
2021/11/28 05:06:08;;;;;;;4.33;3.27;;;2.20;99.90;;;;;;4995797;28;20199;-67
2021/11/28 05:08:34;;;;;;;3.43;3.23;;;2.20;99.90;;;;;;4995493;28;20653;-68
2021/11/28 05:11:00;;;;;;;3.60;2.88;;;2.20;99.90;;;;;;4995876;28;20258;-69
2021/11/28 05:13:26;;;;;;;2.20;2.00;;;2.20;99.90;;;;;;4995834;28;20266;-67
2021/11/28 05:15:51;;;;;;;4.40;2.60;;;2.10;99.90;;;;;;4995891;28;20230;-68
2021/11/28 05:18:17;;;;;;;3.97;3.20;;;2.10;99.90;;;;;;4993552;28;20453;-69
2021/11/28 05:20:46;;;;;;;4.03;3.80;;;2.00;99.90;;;;;;4976181;28;20168;-68
2021/11/28 05:23:12;;;;;;;3.20;3.00;;;2.10;99.90;;;;;;4976145;28;20528;-68
2021/11/28 05:25:38;;;;;;;3.33;3.13;;;2.00;99.90;;;;;;4976402;28;20211;-67
2021/11/28 05:28:06;;;;;;;2.70;2.50;;;2.00;99.90;;;;;;4975817;28;20411;-68
2021/11/28 05:30:32;;;;;;;3.70;3.40;;;2.00;99.90;;;;;;4975915;28;20502;-67
2021/11/28 05:32:58;;;;;;;5.80;4.30;;;2.10;99.90;;;;;;4975986;28;20698;-67
2021/11/28 05:35:24;;;;;;;3.10;2.90;;;2.10;99.90;;;;;;4975926;28;20181;-67
2021/11/28 05:37:49;;;;;;;3.65;3.28;;;2.10;99.90;;;;;;4975479;28;20168;-68
2021/11/28 05:40:15;;;;;;;4.17;3.87;;;2.20;99.90;;;;;;4975676;28;20183;-68
2021/11/28 05:42:48;;;;;;;6.83;4.10;;;2.20;99.90;;;;;;4975752;28;20183;-68
2021/11/28 05:45:14;;;;;;;3.00;2.65;;;2.20;99.90;;;;;;4974594;28;20200;-67
2021/11/28 05:47:40;;;;;;;4.35;3.95;;;2.20;99.90;;;;;;4975293;28;20168;-68
2021/11/28 05:50:06;;;;;;;3.73;3.33;;;2.20;99.90;;;;;;4995027;28;20187;-68
2021/11/28 05:52:31;;;;;;;4.80;3.05;;;2.20;99.90;;;;;;4994934;28;20171;-67
2021/11/28 05:54:57;;;;;;;2.60;2.40;;;2.20;99.90;;;;;;4993727;28;20182;-67
2021/11/28 05:57:23;;;;;;;4.93;4.63;;;2.30;99.90;;;;;;4994662;28;20258;-68
2021/11/28 05:59:49;;;;;;;3.47;3.25;;;2.30;99.90;;;;;;4994753;28;20182;-67
2021/11/28 06:02:15;;;;;;;3.70;3.40;;;2.30;99.90;;;;;;4994488;28;20179;-68
2021/11/28 06:04:40;;;;;;;4.37;4.00;;;2.30;99.90;;;;;;4993258;28;20211;-68
2021/11/28 06:07:06;;;;;;;3.90;3.60;;;2.30;99.90;;;;;;4994518;28;20167;-68
2021/11/28 06:09:31;;;;;;;5.40;3.87;;;2.30;99.90;;;;;;4994858;28;20178;-67
2021/11/28 06:11:57;;;;;;;3.87;3.00;;;2.30;99.90;;;;;;4976576;28;20180;-68
2021/11/28 06:14:24;;;;;;;2.70;2.50;;;2.30;99.90;;;;;;4975269;28;20203;-67
2021/11/28 06:16:50;;;;;;;3.30;3.00;;;2.30;99.90;;;;;;4973701;28;20184;-67
2021/11/28 06:19:16;;;;;;;3.30;3.00;;;2.30;99.90;;;;;;4975126;28;20179;-67
2021/11/28 06:21:41;;;;;;;4.53;4.27;;;2.30;99.90;;;;;;4974951;28;20176;-68
2021/11/28 06:24:07;;;;;;;6.93;4.10;;;2.30;99.90;;;;;;4974922;28;20446;-67
2021/11/28 06:26:33;;;;;;;6.67;4.73;;;2.30;99.90;;;;;;4973283;28;20214;-68
2021/11/28 06:28:58;;;;;;;4.27;3.87;;;2.30;99.90;;;;;;4977623;28;20187;-68
2021/11/28 06:31:24;;;;;;;3.97;3.50;;;2.30;99.90;;;;;;4993954;28;20167;-68
2021/11/28 06:33:49;;;;;;;4.97;2.70;;;2.30;99.90;;;;;;4992842;28;20198;-67
2021/11/28 06:36:16;;;;;;;4.10;3.80;;;2.30;99.90;;;;;;4993803;28;20634;-68
2021/11/28 06:38:42;;;;;;;3.42;3.13;;;2.20;99.90;;;;;;4992958;28;20179;-67
2021/11/28 06:41:08;;;;;;;5.00;4.07;;;2.20;99.90;;;;;;4979782;28;20639;-67
2021/11/28 06:43:33;;;;;;;7.40;5.30;;;2.20;99.90;;;;;;4991517;28;20439;-67
2021/11/28 06:46:01;;;;;;;5.63;3.63;;;2.30;99.90;;;;;;4993839;28;20191;-68
2021/11/28 06:48:27;;;;;;;3.58;3.38;;;2.20;99.90;;;;;;4992393;28;20218;-68
2021/11/28 06:50:52;;;;;;;6.30;4.00;;;2.20;99.90;;;;;;4993927;28;20171;-67
2021/11/28 06:53:18;;;;;;;3.30;3.03;;;2.20;99.90;;;;;;4994040;28;20191;-68
2021/11/28 06:55:44;;;;;;;5.32;4.18;;;2.10;99.90;;;;;;4993322;28;20673;-67
2021/11/28 06:58:10;;;;;;;5.63;4.00;;;2.10;99.90;;;;;;4993605;28;20182;-67
2021/11/28 07:00:35;;;;;;;4.50;4.07;;;2.10;99.90;;;;;;4994110;28;20171;-68
2021/11/28 07:03:01;;;;;;;2.80;2.53;;;2.10;99.90;;;;;;4993972;28;20207;-69
2021/11/28 07:05:27;;;;;;;4.30;3.60;;;2.10;99.90;;;;;;4981597;28;20945;-68
2021/11/28 07:07:52;;;;;;;3.20;2.90;;;2.00;99.90;;;;;;4974346;28;20682;-68
2021/11/28 07:10:18;;;;;;;4.60;4.13;;;2.00;99.90;;;;;;4973940;28;20172;-67
2021/11/28 07:12:44;;;;;;;3.07;2.87;;;2.10;99.90;;;;;;4974183;28;20172;-67
2021/11/28 07:15:11;;;;;;;5.80;4.37;;;2.00;99.90;;;;;;4975298;28;20642;-68
2021/11/28 07:17:37;;;;;;;10.05;6.38;;;2.00;99.90;;;;;;4973936;28;20415;-67
2021/11/28 07:20:05;;;;;;;4.93;4.53;;;2.00;99.90;;;;;;4974306;28;20250;-68
2021/11/28 07:22:30;;;;;;;4.97;4.25;;;2.00;99.90;;;;;;4974548;28;20176;-68
2021/11/28 07:24:56;;;;;;;4.50;3.90;;;2.00;99.90;;;;;;4974289;28;20191;-67
2021/11/28 07:27:22;;;;;;;4.38;3.67;;;2.00;99.90;;;;;;4973701;28;20411;-69
2021/11/28 07:29:48;;;;;;;3.93;3.67;;;2.00;99.90;;;;;;4972858;28;20243;-68
2021/11/28 07:32:14;;;;;;;5.53;2.67;;;2.00;99.90;;;;;;4974246;28;20164;-68
2021/11/28 07:34:39;;;;;;;4.07;3.70;;;2.10;99.90;;;;;;4980697;28;20573;-67
2021/11/28 07:37:06;;;;;;;4.10;3.67;;;2.10;99.90;;;;;;4991945;28;20202;-67
2021/11/28 07:39:32;;;;;;;3.22;2.92;;;2.10;99.90;;;;;;4993647;28;20179;-68
2021/11/28 07:41:58;;;;;;;3.03;2.83;;;2.10;99.90;;;;;;4993863;28;20171;-68
2021/11/28 07:44:23;;;;;;;4.40;4.00;;;2.20;99.90;;;;;;4993352;28;20423;-66
2021/11/28 07:46:49;;;;;;;4.97;3.60;;;2.10;99.90;;;;;;4993336;28;20171;-68
2021/11/28 07:49:15;;;;;;;2.93;2.73;;;2.20;99.90;;;;;;4987726;28;20251;-68
2021/11/28 07:51:40;;;;;;;6.83;4.47;;;2.20;99.90;;;;;;4974082;28;20255;-67
2021/11/28 07:54:06;;;;;;;4.33;3.97;;;2.20;99.90;;;;;;4974039;28;20219;-68
2021/11/28 07:56:33;;;;;;;5.70;4.47;;;2.20;99.90;;;;;;4977486;28;20407;-68
2021/11/28 07:58:59;;;;;;;3.30;2.80;;;2.20;99.90;;;;;;4982882;28;20550;-68
2021/11/28 08:01:25;;;;;;;3.33;3.03;;;2.20;99.90;;;;;;4993421;28;20171;-67
2021/11/28 08:03:51;;;;;;;7.67;3.40;;;2.30;99.90;;;;;;4992662;28;20234;-67
2021/11/28 08:06:18;;;;;;;3.08;2.85;;;2.30;99.90;;;;;;4991727;28;20203;-66
2021/11/28 08:08:44;;;;;;;3.60;3.35;;;2.30;99.90;;;;;;4993217;28;20175;-66
2021/11/28 08:11:09;;;;;;;2.90;2.60;;;2.30;99.90;;;;;;4991862;28;20182;-68
2021/11/28 08:13:35;;;;;;;2.73;2.63;;;2.40;99.90;;;;;;4993153;28;20436;-67
2021/11/28 08:16:01;;;;;;;5.43;3.57;;;2.40;99.90;;;;;;4992030;28;20422;-67
2021/11/28 08:18:27;;;;;;;3.13;2.93;;;2.40;99.90;;;;;;4989371;28;20423;-68
2021/11/28 08:20:53;;;;;;;3.50;3.20;;;2.50;99.90;;;;;;4974179;28;20188;-67
2021/11/28 08:23:19;;;;;;;3.30;2.97;;;2.60;99.90;;;;;;4975789;28;20450;-67
2021/11/28 08:25:44;;;;;;;2.57;2.37;;;2.60;99.90;;;;;;4977290;28;20203;-68
2021/11/28 08:28:10;;;;;;;3.90;3.60;;;2.60;99.90;;;;;;4975645;28;20172;-68
2021/11/28 08:30:37;;;;;;;4.93;3.53;;;2.60;99.90;;;;;;4975747;28;20655;-72
2021/11/28 08:33:04;;;;;;;2.83;2.72;;;2.80;99.90;;;;;;4978692;28;20669;-68
2021/11/28 08:35:30;;;;;;;8.25;3.38;;;2.70;99.90;;;;;;4996458;28;20642;-67
2021/11/28 08:37:57;;;;;;;3.60;3.40;;;2.70;99.90;;;;;;4995861;28;20168;-65
2021/11/28 08:40:23;;;;;;;4.20;3.80;;;2.80;99.90;;;;;;4996161;28;20705;-67
2021/11/28 08:42:49;;;;;;;4.05;2.97;;;2.80;99.90;;;;;;4996045;28;20605;-69
2021/11/28 08:45:16;;;;;;;2.60;2.40;;;2.90;99.90;;;;;;4994783;28;20203;-66
2021/11/28 08:47:43;;;;;;;2.58;2.40;;;2.90;99.90;;;;;;4994281;28;20168;-66
2021/11/28 08:50:10;;;;;;;4.60;4.20;;;2.90;99.90;;;;;;4983700;28;20504;-67
2021/11/28 08:52:35;;;;;;;6.55;4.65;;;2.90;99.90;;;;;;4976587;28;20223;-67
2021/11/28 08:55:02;;;;;;;3.40;3.10;;;2.90;99.90;;;;;;4976406;28;20180;-64
2021/11/28 08:57:28;;;;;;;3.63;3.25;;;2.90;99.90;;;;;;4976223;28;20486;-65
2021/11/28 08:59:53;;;;;;;3.70;3.50;;;3.00;99.90;;;;;;4976511;28;20168;-65
2021/11/28 09:02:19;;;;;;;6.40;4.27;;;2.90;99.90;;;;;;4976322;28;20183;-64
2021/11/28 09:04:45;;;;;;;4.10;3.53;;;2.90;99.90;;;;;;4994568;28;20222;-65
2021/11/28 09:07:11;;;;;;;3.70;3.30;;;2.90;99.90;;;;;;4995480;28;20195;-65
2021/11/28 09:09:37;;;;;;;3.23;3.00;;;2.90;99.90;;;;;;4993729;28;20415;-65
2021/11/28 09:12:04;;;;;;;4.25;3.47;;;3.00;99.90;;;;;;4992995;28;20168;-65
2021/11/28 09:14:30;;;;;;;3.67;3.38;;;3.00;99.90;;;;;;4987531;28;20199;-65
2021/11/28 09:16:55;;;;;;;3.45;3.13;;;3.00;99.90;;;;;;4988216;28;20223;-64
2021/11/28 09:21:49;;;;;;;4.30;3.85;;;3.10;99.90;;;;;;4974972;28;20168;-63
2021/11/28 09:24:36;;;;;;;6.68;4.00;;;3.10;99.90;;;;;;4975441;28;20319;-64
2021/11/28 09:27:07;;;;;;;8.23;3.70;;;3.10;99.90;;;;;;4975604;28;20172;-64
2021/11/28 09:29:37;;;;;;;3.47;3.28;;;3.10;99.90;;;;;;4975820;28;20203;-67
2021/11/28 09:32:05;;;;;;;5.97;3.47;;;3.20;99.90;;;;;;4980575;28;20258;-66
2021/11/28 09:34:31;;;;;;;2.80;2.53;;;3.20;99.90;;;;;;4988630;28;20196;-65
2021/11/28 09:36:57;;;;;;;4.38;3.88;;;3.20;99.90;;;;;;4974406;28;20183;-70
2021/11/28 09:39:23;;;;;;;3.90;3.30;;;3.20;99.90;;;;;;4975902;28;20172;-64
2021/11/28 09:41:57;;;;;;;4.30;3.87;;;3.30;99.90;;;;;;4975779;28;20195;-67
2021/11/28 09:44:25;;;;;;;5.40;4.07;;;3.30;99.90;;;;;;4975693;28;20196;-66
2021/11/28 09:46:53;;;;;;;3.40;3.20;;;3.20;99.90;;;;;;4975264;28;20204;-65
2021/11/28 09:49:23;;;;;;;14.20;5.15;;;3.30;99.90;;;;;;4983665;28;20180;-66
2021/11/28 09:51:51;;;;;;;4.22;3.17;;;3.40;99.90;;;;;;4975798;28;20169;-66
2021/11/28 09:54:19;;;;;;;5.45;3.72;;;3.40;99.90;;;;;;4975444;28;20195;-65
2021/11/28 09:56:46;;;;;;;5.13;4.40;;;3.50;99.90;;;;;;4973671;28;20662;-68
2021/11/28 09:59:13;;;;;;;5.65;2.92;;;3.50;99.90;;;;;;4975290;28;20176;-67
2021/11/28 10:01:40;;;;;;;4.75;4.43;;;3.60;99.90;;;;;;4975392;28;20574;-65
2021/11/28 10:04:06;;;;;;;5.90;3.50;;;3.70;99.90;;;;;;4984916;28;20207;-66
2021/11/28 10:06:33;;;;;;;5.47;3.67;;;3.80;99.90;;;;;;4985263;28;20585;-66
2021/11/28 10:09:04;;;;;;;5.28;4.20;;;3.90;99.90;;;;;;4975162;28;20297;-64
2021/11/28 10:11:39;;;;;;;5.47;4.22;;;3.90;99.90;;;;;;4975234;28;20635;-65
2021/11/28 10:14:06;;;;;;;3.20;3.00;;;4.00;99.90;;;;;;4975045;28;20187;-70
2021/11/28 10:16:32;;;;;;;3.53;3.33;;;4.00;99.90;;;;;;4973563;28;20638;-69
2021/11/28 10:18:59;;;;;;;3.60;3.30;;;4.10;99.90;;;;;;4985699;28;20188;-67
2021/11/28 10:21:26;;;;;;;4.32;3.78;;;4.20;99.90;;;;;;4993178;28;20184;-71
2021/11/28 10:24:04;;;;;;;3.30;3.00;;;4.10;99.90;;;;;;4994496;28;20561;-70
2021/11/28 10:26:30;;;;;;;4.72;3.75;;;4.20;99.90;;;;;;4993948;28;20199;-71
2021/11/28 10:29:15;;;;;;;5.70;5.20;;;4.20;99.90;;;;;;4994122;28;20179;-71
2021/11/28 10:31:56;;;;;;;7.78;4.18;;;4.20;99.90;;;;;;4994407;28;20793;-70
2021/11/28 10:34:24;;;;;;;3.35;3.03;;;4.30;99.90;;;;;;4983212;28;20206;-70
2021/11/28 10:37:00;;;;;;;3.58;3.28;;;4.40;99.90;;;;;;4993671;28;20174;-73
2021/11/28 10:39:26;;;;;;;3.65;3.35;;;4.40;99.90;;;;;;4991320;28;20175;-72
2021/11/28 10:41:54;;;;;;;6.00;4.67;;;4.40;99.90;;;;;;4993870;28;20175;-72
2021/11/28 10:44:23;;;;;;;4.55;4.15;;;4.40;99.90;;;;;;4993174;28;20434;-71
2021/11/28 10:46:50;;;;;;;5.38;4.90;;;4.40;99.90;;;;;;4993255;28;20195;-74
2021/11/28 10:49:21;;;;;;;5.38;3.20;;;4.40;99.90;;;;;;4993758;28;20257;-73
2021/11/28 10:51:50;;;;;;;5.45;3.65;;;4.30;99.90;;;;;;4994067;28;20163;-71
2021/11/28 10:54:27;;;;;;;3.38;3.00;;;4.30;99.90;;;;;;4988667;28;20500;-69
2021/11/28 10:57:08;;;;;;;3.38;3.10;;;4.40;99.90;;;;;;4974140;28;20254;-72
2021/11/28 10:59:38;;;;;;;4.53;3.88;;;4.40;99.90;;;;;;4974687;28;20625;-71
2021/11/28 11:02:32;;;;;;;3.70;3.15;;;4.40;99.90;;;;;;4974488;28;20172;-68
2021/11/28 11:05:00;;;;;;;6.88;4.10;;;4.40;99.90;;;;;;4974191;28;20615;-72
2021/11/28 11:07:27;;;;;;;5.75;3.97;;;4.60;99.90;;;;;;4973836;28;20697;-73
2021/11/28 11:09:54;;;;;;;4.93;4.40;;;4.70;99.90;;;;;;4974409;28;20204;-76
2021/11/28 11:12:22;;;;;;;8.20;4.90;;;4.80;99.90;;;;;;4972865;28;20184;-69
2021/11/28 11:14:50;;;;;;;7.75;5.07;;;4.70;99.90;;;;;;4974189;28;20232;-73
2021/11/28 11:17:16;;;;;;;6.85;5.20;;;4.80;99.90;;;;;;4973450;28;20179;-71
2021/11/28 11:19:46;;;;;;;5.47;4.60;;;4.80;99.90;;;;;;4974172;28;20187;-72
2021/11/28 11:22:18;;;;;;;5.70;4.15;;;4.80;99.90;;;;;;4973520;28;20588;-70
2021/11/28 11:25:08;;;;;;;6.07;3.60;;;4.80;99.90;;;;;;4986457;28;20230;-69
2021/11/28 11:27:39;;;;;;;6.70;4.35;;;4.80;99.90;;;;;;4992024;28;20234;-70
2021/11/28 11:30:11;;;;;;;4.97;4.07;;;4.80;99.90;;;;;;4993530;28;20164;-69
2021/11/28 11:32:54;;;;;;;3.22;2.55;;;4.80;99.90;;;;;;4993585;28;20203;-73
2021/11/28 11:35:26;;;;;;;4.47;4.00;;;4.80;99.90;;;;;;4993409;28;20204;-69
2021/11/28 11:37:58;;;;;;;11.45;4.75;;;4.80;99.90;;;;;;4992617;28;20263;-68
2021/11/28 11:40:25;;;;;;;6.32;5.65;;;4.90;99.90;;;;;;4954626;28;20192;-69
2021/11/28 11:42:52;;;;;;;7.93;4.35;;;4.90;99.90;;;;;;4953316;29;20291;-71
2021/11/28 11:45:22;;;;;;;8.15;4.78;;;4.90;99.90;;;;;;4954606;28;20194;-70
2021/11/28 11:47:49;;;;;;;5.70;4.70;;;4.90;99.90;;;;;;4954332;28;20237;-70
2021/11/28 11:50:18;;;;;;;4.57;4.18;;;4.90;99.90;;;;;;4955071;28;20529;-69
2021/11/28 11:52:44;;;;;;;6.03;5.00;;;4.80;99.90;;;;;;4957112;28;20196;-72
2021/11/28 11:55:26;;;;;;;5.57;5.05;;;4.80;99.90;;;;;;4992091;28;20623;-71
2021/11/28 11:58:12;;;;;;;6.60;4.63;;;4.80;99.90;;;;;;4996664;28;20258;-72
2021/11/28 12:00:59;;;;;;;4.95;4.15;;;4.70;99.90;;;;;;4980247;28;20180;-73
2021/11/28 12:03:26;;;;;;;6.80;3.90;;;4.70;99.90;;;;;;4976049;28;20212;-73
2021/11/28 12:05:56;;;;;;;3.75;3.55;;;4.60;99.90;;;;;;4977332;28;20200;-71
2021/11/28 12:08:31;;;;;;;5.30;4.22;;;4.70;99.90;;;;;;4977213;28;20580;-76
2021/11/28 12:11:11;;;;;;;2.97;2.67;;;4.70;99.90;;;;;;4975960;28;20182;-71
2021/11/28 12:13:40;;;;;;;4.05;3.72;;;4.70;99.90;;;;;;4978011;28;20199;-73
2021/11/28 12:16:06;;;;;;;4.15;3.85;;;4.80;99.90;;;;;;4997062;28;20203;-74
2021/11/28 12:18:34;;;;;;;7.30;5.43;;;4.80;99.90;;;;;;4996606;28;20639;-73
2021/11/28 12:21:14;;;;;;;4.40;3.80;;;4.80;99.90;;;;;;4996735;28;20248;-73
2021/11/28 12:24:09;;;;;;;5.35;4.82;;;4.80;99.90;;;;;;4996552;28;20196;-74
2021/11/28 12:26:39;;;;;;;6.63;3.90;;;4.80;99.90;;;;;;4994800;28;20286;-76
2021/11/28 12:29:13;;;;;;;6.55;5.05;;;4.80;99.90;;;;;;4996230;28;20203;-71
2021/11/28 12:31:44;;;;;;;7.90;4.72;;;4.90;99.90;;;;;;4996134;28;20167;-72
2021/11/28 12:34:12;;;;;;;5.40;4.03;;;4.80;99.90;;;;;;4994875;28;20229;-69
2021/11/28 12:36:42;;;;;;;5.35;4.80;;;4.70;99.90;;;;;;4994507;28;20252;-70
2021/11/28 12:39:09;;;;;;;5.88;5.05;;;4.60;99.90;;;;;;4975890;28;20311;-71
2021/11/28 12:41:44;;;;;;;6.22;5.63;;;4.70;99.90;;;;;;4976808;28;20195;-71
2021/11/28 12:44:32;;;;;;;8.57;5.10;;;4.70;99.90;;;;;;4976402;28;20279;-71
2021/11/28 12:47:18;;;;;;;7.30;5.50;;;4.70;99.90;;;;;;4976256;28;20516;-71
2021/11/28 12:49:57;;;;;;;7.18;5.63;;;4.80;99.90;;;;;;4975544;28;20643;-70
2021/11/28 12:52:26;;;;;;;5.10;4.60;;;4.80;99.90;;;;;;4975273;28;20184;-71
2021/11/28 12:55:09;;;;;;;3.92;3.60;;;4.90;99.90;;;;;;4986156;28;20531;-72
2021/11/28 12:57:55;;;;;;;4.60;3.60;;;5.00;99.90;;;;;;4995547;28;20249;-71
2021/11/28 13:00:26;;;;;;;4.70;4.10;;;5.00;99.90;;;;;;4987103;28;20272;-70
2021/11/28 13:02:59;;;;;;;5.55;5.05;;;5.00;99.90;;;;;;4994369;28;20215;-70
2021/11/28 13:05:30;;;;;;;4.63;4.32;;;4.90;99.90;;;;;;4995078;28;20282;-72
2021/11/28 13:08:05;;;;;;;5.70;4.35;;;5.00;99.90;;;;;;4993641;28;20301;-73